THY2ZD LTFM-LOWW
Flight info
| Callsign | THY2ZD |
|---|---|
| Flight time | N/A |
| Altitude | 34000 |
| Route | TUDBU1E/36 TUDBU DCT ETUBA DCT APROB DCT BALUX DCT TORNO DCT NATEX NATEX2W |
| Aircraft | A320/M-SDE3FGHIRWY/LB1 |
Departure
| Time | 2026-05-04 12:22 |
|---|---|
| Airport | İstanbul Airport (LTFM) |
Arrival
| Time | N/A |
|---|---|
| Airport | Vienna International Airport (LOWW) |
| Time | Latitude | Longitude | Altitude | Speed | Heading |
|---|---|---|---|---|---|
| 2026-05-04 11:55 | 41.26361 | 28.74415 | 334 ft | 0 kts | 211° |
| 2026-05-04 12:07 | 41.26361 | 28.74416 | 334 ft | 0 kts | 211° |
| 2026-05-04 12:10 | 41.26381 | 28.74432 | 331 ft | 4 kts | 213° |
| 2026-05-04 12:10 | 41.26403 | 28.74453 | 332 ft | 4 kts | 222° |
| 2026-05-04 12:11 | 41.26420 | 28.74478 | 330 ft | 4 kts | 260° |
| 2026-05-04 12:11 | 41.26418 | 28.74495 | 332 ft | 1 kts | 334° |
| 2026-05-04 12:11 | 41.26415 | 28.74497 | 332 ft | 2 kts | 334° |
| 2026-05-04 12:15 | 41.26416 | 28.74496 | 332 ft | 1 kts | 334° |
| 2026-05-04 12:15 | 41.26432 | 28.74486 | 330 ft | 4 kts | 334° |
| 2026-05-04 12:16 | 41.26465 | 28.74476 | 333 ft | 6 kts | 354° |
| 2026-05-04 12:16 | 41.26514 | 28.74473 | 332 ft | 8 kts | 358° |
| 2026-05-04 12:16 | 41.26577 | 28.74473 | 334 ft | 10 kts | 359° |
| 2026-05-04 12:16 | 41.26653 | 28.74470 | 334 ft | 12 kts | 359° |
| 2026-05-04 12:17 | 41.26740 | 28.74469 | 334 ft | 13 kts | 359° |
| 2026-05-04 12:17 | 41.26839 | 28.74467 | 332 ft | 15 kts | 359° |
| 2026-05-04 12:17 | 41.26943 | 28.74466 | 334 ft | 14 kts | 10° |
| 2026-05-04 12:17 | 41.26974 | 28.74582 | 330 ft | 15 kts | 89° |
| 2026-05-04 12:18 | 41.26975 | 28.74729 | 334 ft | 17 kts | 89° |
| 2026-05-04 12:18 | 41.26977 | 28.74894 | 334 ft | 19 kts | 88° |
| 2026-05-04 12:18 | 41.26980 | 28.75075 | 334 ft | 21 kts | 89° |
| 2026-05-04 12:18 | 41.26982 | 28.75269 | 334 ft | 19 kts | 89° |
| 2026-05-04 12:19 | 41.26929 | 28.75375 | 329 ft | 16 kts | 177° |
| 2026-05-04 12:19 | 41.26813 | 28.75378 | 333 ft | 17 kts | 178° |
| 2026-05-04 12:19 | 41.26689 | 28.75380 | 334 ft | 18 kts | 180° |
| 2026-05-04 12:19 | 41.26556 | 28.75384 | 329 ft | 20 kts | 179° |
| 2026-05-04 12:20 | 41.26441 | 28.75390 | 330 ft | 14 kts | 162° |
| 2026-05-04 12:20 | 41.26432 | 28.75488 | 333 ft | 11 kts | 89° |
| 2026-05-04 12:20 | 41.26425 | 28.75600 | 334 ft | 13 kts | 90° |
| 2026-05-04 12:20 | 41.26465 | 28.75667 | 330 ft | 11 kts | 357° |
| 2026-05-04 12:21 | 41.26502 | 28.75664 | 333 ft | 0 kts | 360° |
| 2026-05-04 12:21 | 41.26590 | 28.75662 | 330 ft | 42 kts | 358° |
| 2026-05-04 12:21 | 41.27100 | 28.75652 | 333 ft | 101 kts | 359° |
| 2026-05-04 12:21 | 41.27958 | 28.75635 | 354 ft | 143 kts | 356° |
| 2026-05-04 12:22 | 41.29001 | 28.75637 | 760 ft | 154 kts | 359° |
| 2026-05-04 12:22 | 41.30044 | 28.75930 | 1568 ft | 152 kts | 26° |
| 2026-05-04 12:22 | 41.30856 | 28.76853 | 2216 ft | 156 kts | 40° |
| 2026-05-04 12:22 | 41.31749 | 28.77742 | 2602 ft | 170 kts | 28° |
| 2026-05-04 12:23 | 41.32845 | 28.78565 | 2847 ft | 192 kts | 26° |
| 2026-05-04 12:23 | 41.34131 | 28.79370 | 3140 ft | 216 kts | 12° |
| 2026-05-04 12:23 | 41.35678 | 28.79254 | 3614 ft | 235 kts | 339° |
| 2026-05-04 12:23 | 41.36959 | 28.77851 | 4436 ft | 248 kts | 309° |
| 2026-05-04 12:24 | 41.37931 | 28.75939 | 5353 ft | 250 kts | 311° |
| 2026-05-04 12:24 | 41.39010 | 28.74122 | 6251 ft | 251 kts | 313° |
| 2026-05-04 12:24 | 41.40136 | 28.72345 | 7130 ft | 252 kts | 314° |
| 2026-05-04 12:24 | 41.41279 | 28.70554 | 7963 ft | 254 kts | 315° |
| 2026-05-04 12:25 | 41.42423 | 28.68743 | 8803 ft | 256 kts | 315° |